Time;durP1;ratioP1;P1;durP2;ratioP2;P2;SDS_P1;SDS_P2;PMS_P1;PMS_P2;Temp;Humidity;BMP_temperature;BMP_pressure;BME280_temperature;BME280_humidity;BME280_pressure;Samples;Min_cycle;Max_cycle;Signal;HPM_P1;HPM_P2
2021/09/02 00:00:26;;;;;;;5.55;3.42;;;;;;;19.35;49.07;100055.38;5122284;28;20038;-72
2021/09/02 00:02:52;;;;;;;5.82;3.40;;;;;;;19.35;48.91;100051.88;5108619;28;20032;-72
2021/09/02 00:05:17;;;;;;;5.80;3.45;;;;;;;19.33;48.79;100057.47;5119668;28;20020;-72
2021/09/02 00:07:42;;;;;;;6.15;3.47;;;;;;;19.27;48.91;100052.94;5126776;28;20092;-73
2021/09/02 00:10:08;;;;;;;6.10;3.60;;;;;;;19.23;48.90;100058.94;5120642;28;20206;-72
2021/09/02 00:12:34;;;;;;;5.57;3.83;;;;;;;19.17;48.76;100067.84;5124761;28;20027;-72
2021/09/02 00:14:59;;;;;;;8.60;3.72;;;;;;;19.21;48.79;100061.84;5119023;28;20054;-69
2021/09/02 00:17:25;;;;;;;6.53;3.80;;;;;;;19.35;48.10;100062.63;5121621;28;20028;-72
2021/09/02 00:19:50;;;;;;;8.50;3.58;;;;;;;19.42;47.25;100064.25;5128083;27;20032;-72
2021/09/02 00:22:15;;;;;;;4.70;3.53;;;;;;;19.35;47.82;100065.31;5126599;27;20357;-68
2021/09/02 00:24:41;;;;;;;7.57;3.92;;;;;;;19.37;47.71;100056.00;5123454;27;20027;-73
2021/09/02 00:27:06;;;;;;;6.13;3.55;;;;;;;19.39;47.56;100058.47;5130697;27;20036;-69
2021/09/02 00:29:32;;;;;;;9.73;4.20;;;;;;;19.34;47.63;100063.66;5108106;27;20047;-72
2021/09/02 00:31:57;;;;;;;7.85;3.65;;;;;;;19.37;47.31;100052.50;5130384;27;20023;-69
2021/09/02 00:34:22;;;;;;;9.00;3.50;;;;;;;19.55;47.15;100062.59;5126143;27;20031;-69
2021/09/02 00:36:48;;;;;;;9.00;3.60;;;;;;;19.46;47.18;100064.66;5125778;27;20091;-72
2021/09/02 00:39:13;;;;;;;7.40;3.75;;;;;;;19.52;47.12;100062.97;5125974;27;20046;-71
2021/09/02 00:41:39;;;;;;;6.10;3.50;;;;;;;19.36;47.69;100064.25;5125770;27;20023;-68
2021/09/02 00:44:05;;;;;;;6.18;3.72;;;;;;;19.35;47.63;100060.75;5128658;27;20038;-72
2021/09/02 00:46:30;;;;;;;6.70;4.13;;;;;;;19.28;48.10;100072.56;5124847;27;20124;-72
2021/09/02 00:48:57;;;;;;;6.30;4.20;;;;;;;19.37;47.77;100082.84;5129565;27;20042;-69
2021/09/02 00:51:23;;;;;;;5.20;3.53;;;;;;;19.34;47.92;100085.97;5125215;27;20064;-68
2021/09/02 00:53:54;;;;;;;11.57;3.92;;;;;;;19.32;48.09;100082.66;5129559;27;20043;-69
2021/09/02 00:56:20;;;;;;;12.68;4.22;;;;;;;19.40;47.66;100084.28;5128381;27;20257;-72
2021/09/02 00:58:47;;;;;;;8.50;3.80;;;;;;;19.36;48.25;100083.88;5127721;27;20054;-69
2021/09/02 01:01:16;;;;;;;6.65;3.72;;;;;;;19.32;48.25;100079.16;5128116;27;20401;-69
2021/09/02 01:03:43;;;;;;;8.70;3.80;;;;;;;19.25;48.50;100083.72;5127515;27;20058;-69
2021/09/02 01:06:08;;;;;;;7.18;3.95;;;;;;;19.23;48.56;100075.03;5123823;27;20279;-72
2021/09/02 01:08:35;;;;;;;8.68;3.58;;;;;;;19.22;48.81;100084.97;5127408;27;20048;-72
2021/09/02 01:11:00;;;;;;;5.75;3.75;;;;;;;19.12;48.75;100076.50;5123425;27;20036;-72
2021/09/02 01:13:26;;;;;;;7.65;4.20;;;;;;;19.26;48.52;100080.00;5126657;27;20042;-72
2021/09/02 01:15:52;;;;;;;5.70;3.60;;;;;;;18.98;49.26;100067.66;5129248;27;20032;-71
2021/09/02 01:18:18;;;;;;;7.63;4.38;;;;;;;19.04;48.96;100063.31;5126939;27;20050;-69
2021/09/02 01:20:43;;;;;;;9.18;4.65;;;;;;;18.98;49.21;100062.28;5127790;27;20035;-69
2021/09/02 01:23:09;;;;;;;8.48;3.88;;;;;;;19.09;49.08;100069.69;5126941;27;20034;-72
2021/09/02 01:25:40;;;;;;;12.57;4.32;;;;;;;19.02;48.86;100068.06;5107440;27;20035;-72
2021/09/02 01:28:07;;;;;;;6.50;4.07;;;;;;;19.18;48.65;100077.53;5128168;27;20039;-71
2021/09/02 01:30:34;;;;;;;7.22;4.00;;;;;;;19.07;49.05;100070.94;5118028;27;20019;-72
2021/09/02 01:33:00;;;;;;;7.82;3.85;;;;;;;19.11;48.89;100073.00;5126852;27;20046;-69
2021/09/02 01:35:26;;;;;;;9.10;4.40;;;;;;;19.03;48.93;100075.09;5127488;27;20038;-72
2021/09/02 01:37:57;;;;;;;7.68;4.22;;;;;;;19.01;49.17;100077.16;5125849;27;21909;-72
2021/09/02 01:40:33;;;;;;;8.77;3.92;;;;;;;18.90;49.48;100072.41;5126869;27;20047;-69
2021/09/02 01:43:00;;;;;;;9.55;4.72;;;;;;;18.96;49.38;100071.59;5125263;27;20031;-68
2021/09/02 01:45:26;;;;;;;8.20;4.53;;;;;;;18.96;49.55;100075.09;5126745;27;20058;-69
2021/09/02 01:47:55;;;;;;;10.30;3.92;;;;;;;18.79;49.85;100063.13;5126020;27;20039;-72
2021/09/02 01:50:22;;;;;;;7.30;4.20;;;;;;;18.94;49.58;100062.91;5121687;27;20221;-72
2021/09/02 01:52:50;;;;;;;16.20;4.93;;;;;;;19.02;49.24;100073.44;5127061;27;20107;-69
2021/09/02 01:55:16;;;;;;;7.88;4.10;;;;;;;18.87;49.43;100064.78;5127775;27;20023;-72
2021/09/02 01:57:42;;;;;;;7.00;4.00;;;;;;;19.02;49.30;100054.66;5125880;27;20050;-72
2021/09/02 02:00:11;;;;;;;7.13;4.28;;;;;;;19.05;49.33;100056.91;5126733;27;20039;-72
2021/09/02 02:02:37;;;;;;;7.32;4.47;;;;;;;18.97;49.90;100063.31;5123124;27;20027;-69
2021/09/02 02:05:03;;;;;;;19.77;5.07;;;;;;;18.85;49.83;100059.63;5125216;27;20133;-68
2021/09/02 02:07:29;;;;;;;8.65;4.45;;;;;;;18.93;49.90;100056.72;5112673;27;20045;-69
2021/09/02 02:09:54;;;;;;;10.88;4.53;;;;;;;18.69;50.16;100051.97;5125240;27;20039;-72
2021/09/02 02:12:20;;;;;;;8.95;4.80;;;;;;;18.68;50.34;100053.81;5127537;27;20031;-72
2021/09/02 02:14:46;;;;;;;7.97;4.35;;;;;;;18.63;50.61;100044.75;5126583;27;20108;-72
2021/09/02 02:17:11;;;;;;;9.88;4.85;;;;;;;18.65;50.77;100059.59;5126582;27;20023;-72
2021/09/02 02:19:37;;;;;;;10.15;4.40;;;;;;;18.79;50.59;100055.09;5126445;27;20039;-69
2021/09/02 02:22:03;;;;;;;9.90;4.55;;;;;;;18.71;50.50;100052.59;5122998;27;20624;-72
2021/09/02 02:24:29;;;;;;;11.45;4.80;;;;;;;18.58;51.12;100045.34;5124063;27;20043;-72
2021/09/02 02:26:54;;;;;;;8.00;5.10;;;;;;;18.57;51.06;100038.31;5127742;27;20039;-72
2021/09/02 02:29:20;;;;;;;9.43;4.75;;;;;;;18.66;50.86;100038.97;5141430;27;20034;-69
2021/09/02 02:31:45;;;;;;;21.77;5.55;;;;;;;18.69;50.57;100033.19;5141413;27;20037;-72
2021/09/02 02:34:11;;;;;;;9.98;4.55;;;;;;;18.60;51.01;100029.03;5139367;27;20031;-72
2021/09/02 02:36:36;;;;;;;8.63;5.10;;;;;;;18.53;51.06;100029.03;5143793;27;20031;-72
2021/09/02 02:39:02;;;;;;;9.85;4.18;;;;;;;18.55;51.51;100029.66;5133662;27;20218;-69
2021/09/02 02:41:28;;;;;;;7.57;5.10;;;;;;;18.69;51.16;100042.06;5133463;27;20059;-72
2021/09/02 02:43:53;;;;;;;10.45;4.55;;;;;;;18.69;51.14;100041.25;5137277;27;20046;-72
2021/09/02 02:46:19;;;;;;;11.63;5.03;;;;;;;18.59;51.33;100036.25;5137380;27;20024;-72
2021/09/02 02:48:44;;;;;;;11.00;4.63;;;;;;;18.60;51.66;100045.97;5123395;27;20038;-69
2021/09/02 02:51:10;;;;;;;9.75;5.03;;;;;;;18.54;51.93;100048.66;5115450;27;20041;-72
2021/09/02 02:53:35;;;;;;;9.27;4.88;;;;;;;18.59;51.64;100051.53;5135375;27;20031;-68
2021/09/02 02:56:01;;;;;;;10.93;5.13;;;;;;;18.42;52.13;100053.78;5138344;27;20039;-72
2021/09/02 02:58:26;;;;;;;7.28;4.53;;;;;;;18.40;52.29;100056.69;5130717;27;20032;-72
2021/09/02 03:00:52;;;;;;;9.13;4.95;;;;;;;18.39;52.34;100054.22;5143178;27;20027;-72
2021/09/02 03:03:17;;;;;;;9.57;5.10;;;;;;;18.42;52.28;100054.63;5141344;27;20056;-70
2021/09/02 03:05:43;;;;;;;8.07;4.97;;;;;;;18.50;52.26;100058.97;5136993;27;20034;-72
2021/09/02 03:08:08;;;;;;;7.00;5.00;;;;;;;18.42;52.25;100056.47;5138379;27;20038;-68
2021/09/02 03:10:34;;;;;;;9.95;4.82;;;;;;;18.52;52.19;100052.34;5135224;27;20035;-68
2021/09/02 03:12:59;;;;;;;9.27;4.88;;;;;;;18.39;52.27;100056.88;5133509;27;20304;-68
2021/09/02 03:15:24;;;;;;;7.30;5.20;;;;;;;18.22;52.88;100055.63;5132441;27;20023;-68
2021/09/02 03:17:50;;;;;;;8.95;4.85;;;;;;;18.18;53.20;100063.25;5132520;27;20030;-72
2021/09/02 03:20:16;;;;;;;7.72;4.68;;;;;;;18.23;53.16;100060.78;5128208;27;20019;-69
2021/09/02 03:22:42;;;;;;;7.55;4.90;;;;;;;18.21;52.98;100072.75;5124257;27;20095;-69
2021/09/02 03:25:08;;;;;;;7.82;5.07;;;;;;;18.27;52.96;100066.56;5124273;28;20077;-68
2021/09/02 03:27:34;;;;;;;14.57;4.93;;;;;;;18.27;53.33;100079.97;5123347;27;20062;-72
2021/09/02 03:30:00;;;;;;;8.13;5.00;;;;;;;18.30;52.73;100082.25;5126394;27;20380;-72
2021/09/02 03:32:25;;;;;;;11.95;5.28;;;;;;;18.31;53.07;100083.88;5125943;27;20038;-68
2021/09/02 03:34:51;;;;;;;10.70;5.53;;;;;;;18.17;53.70;100081.19;5127858;27;20043;-69
2021/09/02 03:37:16;;;;;;;8.75;5.05;;;;;;;18.27;53.44;100079.97;5126043;28;20027;-68
2021/09/02 03:39:43;;;;;;;12.93;5.53;;;;;;;18.18;53.52;100066.75;5112022;28;20106;-72
2021/09/02 03:42:08;;;;;;;11.80;5.57;;;;;;;18.13;54.01;100071.06;5127290;28;20086;-69
2021/09/02 03:44:33;;;;;;;11.93;4.72;;;;;;;18.22;53.82;100075.22;5122429;28;20225;-68
2021/09/02 03:46:59;;;;;;;10.60;5.30;;;;;;;18.16;54.33;100078.72;5126229;28;20082;-68
2021/09/02 03:49:25;;;;;;;15.38;6.03;;;;;;;18.07;54.25;100074.56;5124212;28;20062;-72
2021/09/02 03:51:50;;;;;;;11.88;5.40;;;;;;;18.07;54.53;100083.44;5126190;28;20090;-68
2021/09/02 03:54:16;;;;;;;9.90;5.25;;;;;;;18.11;54.18;100092.72;5129687;27;20206;-68
2021/09/02 03:56:41;;;;;;;12.85;5.40;;;;;;;18.17;54.02;100091.09;5132177;27;20027;-72
2021/09/02 03:59:07;;;;;;;10.70;5.47;;;;;;;18.17;54.49;100091.09;5130023;27;20038;-68
2021/09/02 04:01:32;;;;;;;12.40;5.45;;;;;;;18.19;54.38;100089.84;5131168;27;20024;-72
2021/09/02 04:03:58;;;;;;;10.40;4.68;;;;;;;18.29;53.85;100097.50;5128299;27;20073;-68
2021/09/02 04:06:23;;;;;;;12.18;5.60;;;;;;;18.21;53.82;100088.81;5126671;27;20023;-72
2021/09/02 04:08:50;;;;;;;8.95;5.05;;;;;;;18.23;54.02;100102.84;5110161;28;20061;-68
2021/09/02 04:11:15;;;;;;;12.77;5.57;;;;;;;18.22;54.05;100099.34;5129128;27;20236;-68
2021/09/02 04:13:41;;;;;;;8.98;5.28;;;;;;;18.25;53.92;100106.16;5128892;27;20035;-72
2021/09/02 04:16:06;;;;;;;9.60;4.95;;;;;;;18.28;53.82;100105.75;5129905;27;20027;-68
2021/09/02 04:18:32;;;;;;;9.25;4.75;;;;;;;18.28;53.76;100101.22;5128575;27;20036;-72
2021/09/02 04:20:57;;;;;;;8.77;5.13;;;;;;;18.39;53.55;100107.81;5129442;27;20230;-68
2021/09/02 04:23:24;;;;;;;9.63;4.85;;;;;;;18.47;52.78;100096.91;5126818;27;20043;-72
2021/09/02 04:25:49;;;;;;;11.88;4.70;;;;;;;18.50;53.05;100107.22;5126949;27;20098;-72
2021/09/02 04:28:15;;;;;;;14.57;5.32;;;;;;;18.44;52.99;100108.88;5129553;27;20081;-68
2021/09/02 04:30:40;;;;;;;10.02;4.95;;;;;;;18.42;53.18;100108.25;5128053;27;20020;-68
2021/09/02 04:33:06;;;;;;;8.68;4.70;;;;;;;18.61;52.71;100105.78;5128559;27;20023;-72
2021/09/02 04:35:31;;;;;;;13.25;5.25;;;;;;;18.58;52.55;100109.72;5131778;27;20276;-72
2021/09/02 04:37:56;;;;;;;11.55;4.90;;;;;;;18.65;52.39;100102.53;5129735;27;20102;-72
2021/09/02 04:40:22;;;;;;;8.23;4.78;;;;;;;18.65;52.62;100109.75;5131105;27;20019;-72
2021/09/02 04:42:48;;;;;;;8.75;4.45;;;;;;;18.59;52.47;100103.31;5126145;27;20039;-68
2021/09/02 04:45:14;;;;;;;8.90;4.90;;;;;;;18.75;52.08;100112.88;5126865;27;20039;-69
2021/09/02 04:47:40;;;;;;;11.90;4.47;;;;;;;18.67;52.21;100116.56;5125951;27;20035;-68
2021/09/02 04:50:08;;;;;;;12.00;5.32;;;;;;;18.85;51.74;100123.19;5130023;27;20347;-72
2021/09/02 04:52:34;;;;;;;6.93;4.57;;;;;;;18.91;51.87;100130.41;5127168;27;20032;-68
2021/09/02 04:54:59;;;;;;;11.48;5.00;;;;;;;18.92;51.15;100130.22;5131403;27;20051;-72
2021/09/02 04:57:25;;;;;;;9.52;5.05;;;;;;;18.94;51.63;100133.50;5125882;27;20023;-72
2021/09/02 04:59:50;;;;;;;9.27;4.68;;;;;;;19.09;51.44;100130.59;5129640;27;20224;-68
2021/09/02 05:02:16;;;;;;;7.70;4.70;;;;;;;19.13;51.14;100137.22;5126089;27;20035;-68
2021/09/02 05:04:42;;;;;;;13.95;5.15;;;;;;;19.21;51.20;100139.69;5130034;27;20329;-72
2021/09/02 05:07:07;;;;;;;12.50;5.80;;;;;;;19.49;50.61;100143.97;5128069;27;20228;-68
2021/09/02 05:09:34;;;;;;;7.15;4.65;;;;;;;19.56;50.41;100140.25;5133283;27;20043;-68
2021/09/02 05:11:59;;;;;;;13.30;4.82;;;;;;;19.81;49.94;100140.41;5137584;27;20163;-72
2021/09/02 05:14:24;;;;;;;8.98;4.68;;;;;;;20.09;48.89;100143.59;5137773;27;20042;-69
2021/09/02 05:16:50;;;;;;;11.80;4.90;;;;;;;20.24;48.33;100142.50;5136539;27;20027;-72
2021/09/02 05:19:15;;;;;;;12.82;4.60;;;;;;;20.43;48.31;100144.28;5138369;27;20027;-69
2021/09/02 05:21:41;;;;;;;8.77;4.95;;;;;;;20.64;47.26;100154.69;5119038;27;20061;-72
2021/09/02 05:24:06;;;;;;;10.30;5.10;;;;;;;20.77;47.06;100140.31;5136780;27;20031;-67
2021/09/02 05:26:33;;;;;;;12.40;5.10;;;;;;;20.83;46.44;100149.41;5136599;27;20027;-72
2021/09/02 05:28:58;;;;;;;10.18;4.93;;;;;;;20.79;46.51;100142.78;5118600;27;20055;-72
2021/09/02 05:31:23;;;;;;;10.15;4.60;;;;;;;21.02;46.52;100148.44;5136113;27;20027;-68
2021/09/02 05:33:49;;;;;;;9.95;4.43;;;;;;;21.20;45.82;100143.06;5135504;27;20034;-68
2021/09/02 05:36:15;;;;;;;9.77;4.05;;;;;;;21.14;45.96;100149.34;5135813;27;20027;-72
2021/09/02 05:38:40;;;;;;;9.38;4.60;;;;;;;21.25;45.93;100145.97;5134411;27;20047;-68
2021/09/02 05:41:06;;;;;;;12.50;4.28;;;;;;;21.44;44.95;100149.50;5137510;27;20058;-72
2021/09/02 05:43:32;;;;;;;10.45;5.30;;;;;;;21.65;44.56;100149.06;5134433;27;20027;-71
2021/09/02 05:45:57;;;;;;;7.32;4.30;;;;;;;22.04;43.73;100143.50;5130936;27;20276;-69
2021/09/02 05:48:23;;;;;;;14.02;5.00;;;;;;;22.30;43.02;100143.94;5136187;27;20043;-72
2021/09/02 05:50:50;;;;;;;13.65;4.60;;;;;;;22.57;42.34;100135.47;5136155;27;20027;-72
2021/09/02 05:53:15;;;;;;;20.38;4.80;;;;;;;22.63;41.87;100139.94;5133789;27;20071;-68
2021/09/02 05:55:41;;;;;;;11.23;4.47;;;;;;;22.66;41.74;100139.50;5135883;27;20035;-69
2021/09/02 05:58:06;;;;;;;10.10;4.18;;;;;;;22.69;41.55;100140.91;5135104;27;20023;-72
2021/09/02 06:00:32;;;;;;;12.13;4.78;;;;;;;22.59;41.73;100144.97;5135160;27;20230;-69
2021/09/02 06:06:19;;;;;;;11.40;4.45;;;;;;;22.99;41.27;100138.19;5118382;27;20054;-69
2021/09/02 06:08:45;;;;;;;6.45;4.43;;;;;;;23.05;41.07;100138.06;5134049;27;20297;-69
2021/09/02 06:11:10;;;;;;;20.00;4.75;;;;;;;23.01;41.14;100141.47;5135736;27;20254;-72
2021/09/02 06:13:35;;;;;;;8.85;4.85;;;;;;;23.32;40.60;100134.91;5135331;27;20054;-69
2021/09/02 06:16:02;;;;;;;11.20;4.72;;;;;;;23.67;40.16;100133.00;5134959;27;20238;-72
2021/09/02 06:18:28;;;;;;;9.18;5.05;;;;;;;23.75;39.71;100123.72;5133750;27;20047;-72
2021/09/02 06:20:54;;;;;;;10.70;4.07;;;;;;;23.86;39.22;100125.56;5137611;27;20027;-69
2021/09/02 06:23:19;;;;;;;12.43;4.78;;;;;;;24.15;39.01;100132.66;5134733;27;20053;-69
2021/09/02 06:25:48;;;;;;;11.55;4.50;;;;;;;24.28;38.68;100123.47;5135517;27;20019;-70
2021/09/02 06:28:13;;;;;;;8.57;4.45;;;;;;;24.03;38.89;100121.06;5137387;27;20038;-72
2021/09/02 06:30:39;;;;;;;8.75;5.13;;;;;;;24.63;38.19;100130.56;5133807;27;20053;-72
2021/09/02 06:33:05;;;;;;;15.70;4.57;;;;;;;24.56;37.99;100130.72;5132851;27;20027;-69
2021/09/02 06:35:30;;;;;;;12.27;5.15;;;;;;;24.49;38.53;100128.16;5136976;27;20083;-69
2021/09/02 06:37:56;;;;;;;9.00;4.68;;;;;;;24.48;38.11;100137.34;5115492;27;20216;-69
2021/09/02 06:40:22;;;;;;;9.63;4.30;;;;;;;24.55;37.62;100131.78;5132925;27;20027;-69
2021/09/02 06:42:48;;;;;;;11.98;5.22;;;;;;;24.46;37.94;100136.78;5135780;27;20353;-69
2021/09/02 06:45:13;;;;;;;13.68;5.20;;;;;;;24.44;38.11;100124.56;5135994;27;20027;-69
2021/09/02 06:47:40;;;;;;;9.68;4.65;;;;;;;24.68;37.66;100133.38;5132800;27;20034;-72
2021/09/02 06:50:11;;;;;;;12.05;4.57;;;;;;;24.70;37.21;100132.06;5136058;27;20035;-72
2021/09/02 06:52:36;;;;;;;12.75;4.97;;;;;;;24.65;37.58;100133.84;5134675;27;20031;-72
2021/09/02 06:55:03;;;;;;;16.50;4.63;;;;;;;24.92;36.94;100131.31;5132944;27;20069;-72
2021/09/02 06:57:29;;;;;;;12.50;4.40;;;;;;;25.54;36.48;100125.78;5119473;27;20360;-72
2021/09/02 06:59:55;;;;;;;9.07;4.47;;;;;;;25.48;36.00;100134.91;5136356;27;20079;-73
2021/09/02 07:02:21;;;;;;;9.93;4.70;;;;;;;25.63;35.84;100132.41;5132936;27;20027;-69
2021/09/02 07:04:46;;;;;;;7.93;4.30;;;;;;;25.57;35.21;100120.69;5134490;27;20092;-72
2021/09/02 07:07:12;;;;;;;10.00;4.85;;;;;;;25.87;35.66;100124.88;5116144;27;20279;-69
2021/09/02 07:09:38;;;;;;;10.20;4.38;;;;;;;26.14;35.17;100124.94;5134657;27;20042;-69
2021/09/02 07:12:03;;;;;;;9.85;4.28;;;;;;;26.27;34.27;100133.50;5134404;27;20097;-70
2021/09/02 07:14:29;;;;;;;11.07;4.25;;;;;;;26.34;34.36;100123.28;5117113;27;20197;-69
2021/09/02 07:16:55;;;;;;;9.60;4.30;;;;;;;26.57;33.66;100129.47;5134239;27;20028;-70
2021/09/02 07:19:20;;;;;;;13.18;3.75;;;;;;;26.76;33.43;100133.44;5134099;27;20107;-72
2021/09/02 07:21:46;;;;;;;8.73;4.07;;;;;;;27.09;33.20;100129.69;5133660;27;20070;-70
2021/09/02 07:24:11;;;;;;;16.98;4.78;;;;;;;26.92;33.53;100129.75;5134970;27;20271;-70
2021/09/02 07:26:39;;;;;;;5.82;3.92;;;;;;;26.84;33.27;100132.97;5133662;27;20038;-70
2021/09/02 07:29:06;;;;;;;6.15;3.65;;;;;;;27.08;32.35;100136.19;5132996;27;20156;-69
2021/09/02 07:31:32;;;;;;;6.35;4.00;;;;;;;27.14;32.56;100139.78;5132731;27;20060;-72
2021/09/02 07:33:57;;;;;;;9.80;4.38;;;;;;;27.10;33.14;100125.88;5134605;27;20063;-72
2021/09/02 07:36:23;;;;;;;6.15;3.95;;;;;;;27.22;32.54;100133.84;5132214;27;20030;-73
2021/09/02 07:38:48;;;;;;;13.77;4.45;;;;;;;26.98;32.87;100131.47;5133213;27;20039;-69
2021/09/02 07:41:14;;;;;;;8.50;3.65;;;;;;;27.50;32.44;100129.94;5135183;27;20038;-69
2021/09/02 07:43:40;;;;;;;6.63;3.53;;;;;;;27.29;32.38;100137.16;5135586;27;20043;-73
2021/09/02 07:46:05;;;;;;;11.85;3.88;;;;;;;27.35;31.69;100136.09;5114496;27;20039;-69
2021/09/02 07:48:31;;;;;;;10.82;4.07;;;;;;;27.33;32.02;100136.38;5134422;27;20074;-73
2021/09/02 07:50:56;;;;;;;8.80;4.00;;;;;;;27.46;31.67;100137.78;5141003;27;20060;-69
2021/09/02 07:53:21;;;;;;;4.55;3.53;;;;;;;27.82;31.13;100143.44;5140651;27;20056;-73
2021/09/02 07:55:48;;;;;;;6.68;4.40;;;;;;;27.58;31.29;100143.03;5140293;27;20031;-74
2021/09/02 07:58:13;;;;;;;12.48;4.38;;;;;;;27.86;31.21;100142.63;5141897;27;20035;-69
2021/09/02 08:00:39;;;;;;;6.05;3.17;;;;;;;27.71;30.75;100144.47;5140508;27;20076;-69
2021/09/02 08:03:04;;;;;;;6.82;3.45;;;;;;;27.62;31.10;100136.00;5141535;27;20239;-73
2021/09/02 08:05:30;;;;;;;4.10;3.30;;;;;;;27.89;30.46;100133.13;5122552;27;20194;-74
2021/09/02 08:07:55;;;;;;;4.72;3.35;;;;;;;27.57;30.96;100131.31;5141212;27;20043;-74
2021/09/02 08:10:24;;;;;;;8.05;3.30;;;;;;;27.79;30.82;100128.47;5140657;27;20035;-69
2021/09/02 08:12:50;;;;;;;11.45;2.90;;;;;;;28.06;30.21;100130.19;5139780;27;20283;-73
2021/09/02 08:15:17;;;;;;;5.72;2.90;;;;;;;27.80;30.47;100121.13;5141505;27;20221;-69
2021/09/02 08:17:43;;;;;;;7.38;3.30;;;;;;;27.76;30.81;100128.19;5141432;27;20198;-73
2021/09/02 08:20:10;;;;;;;7.72;3.00;;;;;;;27.73;30.39;100118.66;5141302;27;20038;-73
2021/09/02 08:22:36;;;;;;;5.10;2.97;;;;;;;27.82;30.76;100119.75;5140657;27;20023;-73
2021/09/02 08:25:02;;;;;;;7.05;3.33;;;;;;;27.99;29.95;100112.19;5141421;27;20035;-73
2021/09/02 08:27:27;;;;;;;8.98;3.70;;;;;;;28.00;30.08;100110.28;5150887;27;20050;-69
2021/09/02 08:29:53;;;;;;;6.32;3.22;;;;;;;28.16;29.36;100113.91;5158399;27;20239;-73
2021/09/02 08:32:18;;;;;;;4.68;2.97;;;;;;;28.26;29.51;100109.34;5141501;27;20220;-73
2021/09/02 08:34:44;;;;;;;7.38;2.85;;;;;;;28.03;29.74;100108.94;5141778;27;20043;-69
2021/09/02 08:37:09;;;;;;;6.25;2.80;;;;;;;28.25;29.27;100104.16;5141425;27;20358;-69
2021/09/02 08:39:35;;;;;;;7.47;3.25;;;;;;;27.88;30.04;100091.47;5143316;27;20047;-73
2021/09/02 08:42:00;;;;;;;6.97;3.17;;;;;;;27.73;30.63;100104.22;5145502;27;20038;-73
2021/09/02 08:44:26;;;;;;;4.30;2.83;;;;;;;27.99;29.33;100097.78;5145557;27;20567;-73
2021/09/02 08:46:52;;;;;;;4.68;3.03;;;;;;;28.09;29.77;100095.09;5143200;27;20027;-69
2021/09/02 08:49:24;;;;;;;7.32;2.88;;;;;;;28.39;28.52;100086.19;5145117;27;20035;-73
2021/09/02 08:51:50;;;;;;;4.72;2.92;;;;;;;28.52;29.05;100093.03;5144248;27;20056;-73
2021/09/02 08:54:17;;;;;;;4.85;3.08;;;;;;;28.86;29.14;100087.88;5144441;27;20364;-69
2021/09/02 08:56:43;;;;;;;10.10;3.33;;;;;;;28.80;28.04;100083.47;5144616;27;20094;-69
2021/09/02 08:59:08;;;;;;;4.97;3.00;;;;;;;28.90;28.13;100084.31;5145092;27;20072;-73
2021/09/02 09:01:34;;;;;;;4.20;3.10;;;;;;;28.80;28.34;100086.19;5145016;27;20332;-73
2021/09/02 09:04:08;;;;;;;4.15;2.13;;;;;;;29.01;27.63;100073.41;5144991;27;20027;-74
2021/09/02 09:06:34;;;;;;;6.53;2.70;;;;;;;29.11;27.81;100076.09;5144746;27;20031;-70
2021/09/02 09:08:59;;;;;;;3.70;2.25;;;;;;;28.89;27.34;100073.69;5144527;27;20076;-69
2021/09/02 09:11:30;;;;;;;4.65;2.88;;;;;;;28.97;28.39;100072.31;5144741;27;20059;-74
2021/09/02 09:14:15;;;;;;;6.57;3.03;;;;;;;28.82;28.31;100076.66;5144932;27;20050;-74
2021/09/02 09:16:49;;;;;;;4.15;2.45;;;;;;;28.99;28.48;100061.94;5144577;27;20355;-73
2021/09/02 09:19:39;;;;;;;9.02;3.05;;;;;;;28.82;28.03;100062.22;5144525;27;20047;-74
2021/09/02 09:22:13;;;;;;;8.70;3.08;;;;;;;29.00;28.27;100050.75;5144585;27;20570;-73
2021/09/02 09:24:51;;;;;;;6.45;2.40;;;;;;;28.85;27.91;100050.78;5144633;27;20061;-73
2021/09/02 09:27:23;;;;;;;4.90;2.42;;;;;;;28.84;28.41;100055.44;5125930;27;20102;-70
2021/09/02 09:30:29;;;;;;;3.80;2.15;;;;;;;29.13;27.93;100052.94;5144544;27;20284;-73
2021/09/02 09:32:56;;;;;;;8.07;2.47;;;;;;;28.97;28.10;100047.78;5140181;27;20322;-70
2021/09/02 09:35:36;;;;;;;5.88;2.40;;;;;;;28.96;28.84;100052.41;5144242;27;20034;-70
2021/09/02 09:38:03;;;;;;;6.75;2.95;;;;;;;28.81;27.99;100046.94;5144062;27;20055;-69
2021/09/02 09:40:29;;;;;;;7.38;2.78;;;;;;;28.64;28.75;100041.78;5139737;27;20357;-69
2021/09/02 09:43:00;;;;;;;4.30;2.40;;;;;;;28.58;27.92;100046.44;5136233;27;20042;-73
2021/09/02 09:45:46;;;;;;;4.03;2.30;;;;;;;28.39;28.68;100039.09;5134828;27;20081;-69
2021/09/02 09:48:39;;;;;;;4.55;2.17;;;;;;;28.57;28.73;100030.34;5135432;27;20035;-69
2021/09/02 09:51:06;;;;;;;3.90;2.35;;;;;;;28.49;28.53;100037.19;5115805;27;20030;-73
2021/09/02 09:53:31;;;;;;;4.18;2.20;;;;;;;28.34;28.86;100033.63;5135166;27;20037;-73
2021/09/02 09:55:58;;;;;;;4.55;2.30;;;;;;;28.22;28.74;100033.88;5135193;27;20035;-73
2021/09/02 09:58:25;;;;;;;4.72;2.30;;;;;;;28.33;29.34;100037.44;5131146;27;20094;-73
2021/09/02 10:00:56;;;;;;;4.60;2.13;;;;;;;28.06;28.29;100019.41;5132725;27;20039;-69
2021/09/02 10:03:22;;;;;;;3.17;1.90;;;;;;;27.88;28.67;100031.63;5116143;27;20031;-73
2021/09/02 10:05:49;;;;;;;4.72;1.67;;;;;;;27.86;28.50;100016.63;5134437;27;20080;-74
2021/09/02 10:08:19;;;;;;;10.63;2.20;;;;;;;27.73;29.66;100000.84;5134254;27;20111;-69
2021/09/02 10:10:47;;;;;;;3.28;2.20;;;;;;;27.85;29.13;100020.44;5131633;27;20031;-69
2021/09/02 10:13:13;;;;;;;8.18;2.20;;;;;;;27.84;30.00;100016.91;5135691;27;20087;-69
2021/09/02 10:15:39;;;;;;;7.10;2.45;;;;;;;28.12;29.60;100029.22;5137095;27;20034;-72
2021/09/02 10:18:06;;;;;;;3.30;1.95;;;;;;;27.93;29.67;100017.19;5132857;27;20098;-69
2021/09/02 10:20:34;;;;;;;6.22;2.38;;;;;;;27.98;29.54;100020.75;5133011;27;20030;-71
2021/09/02 10:23:01;;;;;;;2.83;2.00;;;;;;;28.28;29.08;100011.03;5133956;27;20051;-71
2021/09/02 10:25:33;;;;;;;3.38;2.22;;;;;;;28.17;29.92;100015.63;5141230;27;20015;-69
2021/09/02 10:28:02;;;;;;;4.95;2.08;;;;;;;28.10;28.59;100006.09;5142525;27;20039;-69
2021/09/02 10:30:29;;;;;;;5.30;2.28;;;;;;;28.01;28.96;100003.06;5142316;27;20217;-71
2021/09/02 10:32:56;;;;;;;4.43;1.95;;;;;;;28.10;29.14;100001.47;5143191;27;20190;-69
2021/09/02 10:35:22;;;;;;;6.07;2.13;;;;;;;28.30;29.26;99995.25;5142952;27;20208;-71
2021/09/02 10:37:49;;;;;;;5.43;2.55;;;;;;;28.41;29.26;100001.50;5141406;27;20042;-71
2021/09/02 10:40:17;;;;;;;3.08;2.20;;;;;;;28.39;28.49;100000.94;5141937;27;20072;-69
2021/09/02 10:42:53;;;;;;;7.00;2.10;;;;;;;28.34;28.89;99995.50;5143073;27;20049;-69
2021/09/02 10:45:24;;;;;;;2.90;1.92;;;;;;;28.36;28.69;99996.88;5142475;27;20030;-71
2021/09/02 10:47:50;;;;;;;4.80;2.00;;;;;;;28.32;28.85;99982.16;5141660;27;20073;-69
2021/09/02 10:50:29;;;;;;;6.80;2.13;;;;;;;28.24;28.92;99990.88;5142205;27;20229;-69
2021/09/02 10:53:16;;;;;;;6.80;2.00;;;;;;;28.35;28.60;99997.16;5142222;27;20035;-69
2021/09/02 10:55:47;;;;;;;5.75;1.90;;;;;;;28.39;28.40;100000.94;5141285;27;20042;-69
2021/09/02 10:58:32;;;;;;;10.63;1.55;;;;;;;28.41;29.17;99996.88;5141470;27;20143;-71
2021/09/02 11:00:58;;;;;;;7.35;2.22;;;;;;;28.32;28.63;99998.50;5142526;27;20275;-69
2021/09/02 11:03:25;;;;;;;3.35;1.90;;;;;;;28.16;28.18;100002.28;5141215;27;20031;-69
2021/09/02 11:09:29;;;;;;;3.47;1.80;;;;;;;28.34;28.71;99996.31;5136915;27;20058;-69
2021/09/02 11:11:55;;;;;;;4.15;1.90;;;;;;;28.43;28.61;99996.59;5141337;27;20033;-71
2021/09/02 11:14:20;;;;;;;8.13;1.73;;;;;;;28.45;28.86;99988.97;5142164;27;20042;-71
2021/09/02 11:16:46;;;;;;;5.30;1.77;;;;;;;28.44;28.24;99987.34;5142429;27;20054;-70
2021/09/02 11:19:11;;;;;;;3.92;1.70;;;;;;;28.43;28.04;99981.06;5123693;27;20081;-71
2021/09/02 11:21:37;;;;;;;2.60;1.70;;;;;;;28.45;27.61;99983.53;5142421;27;20337;-71
2021/09/02 11:24:06;;;;;;;5.53;1.80;;;;;;;28.25;28.33;99996.06;5142452;27;20075;-71
2021/09/02 11:26:43;;;;;;;3.90;1.70;;;;;;;28.33;28.08;99988.44;5142238;27;20427;-69
2021/09/02 11:29:21;;;;;;;4.15;1.63;;;;;;;28.31;28.94;99985.97;5142622;27;20076;-69